sensor_id;sensor_type;location;lat;lon;timestamp;P1;durP1;ratioP1;P2;durP2;ratioP2
20036;SDS011;10179;42.640;23.312;2024-02-21T00:01:46;6.32;;;4.60;;
20036;SDS011;10179;42.640;23.312;2024-02-21T00:04:12;5.20;;;3.67;;
20036;SDS011;10179;42.640;23.312;2024-02-21T00:06:37;5.60;;;3.65;;
20036;SDS011;10179;42.640;23.312;2024-02-21T00:09:03;6.18;;;3.65;;
20036;SDS011;10179;42.640;23.312;2024-02-21T00:11:28;6.30;;;4.00;;
20036;SDS011;10179;42.640;23.312;2024-02-21T00:13:54;5.15;;;3.72;;
20036;SDS011;10179;42.640;23.312;2024-02-21T00:16:19;4.93;;;3.47;;
20036;SDS011;10179;42.640;23.312;2024-02-21T00:18:45;5.50;;;3.80;;
20036;SDS011;10179;42.640;23.312;2024-02-21T00:21:10;5.07;;;3.28;;
20036;SDS011;10179;42.640;23.312;2024-02-21T00:23:42;5.07;;;3.38;;
20036;SDS011;10179;42.640;23.312;2024-02-21T00:26:08;4.47;;;3.25;;
20036;SDS011;10179;42.640;23.312;2024-02-21T00:28:33;6.75;;;3.80;;
20036;SDS011;10179;42.640;23.312;2024-02-21T00:30:59;4.15;;;3.10;;
20036;SDS011;10179;42.640;23.312;2024-02-21T00:33:24;6.30;;;3.55;;
20036;SDS011;10179;42.640;23.312;2024-02-21T00:35:50;4.80;;;3.15;;
20036;SDS011;10179;42.640;23.312;2024-02-21T00:38:15;4.47;;;3.33;;
20036;SDS011;10179;42.640;23.312;2024-02-21T00:40:40;5.05;;;3.53;;
20036;SDS011;10179;42.640;23.312;2024-02-21T00:43:06;4.78;;;3.83;;
20036;SDS011;10179;42.640;23.312;2024-02-21T00:45:32;5.40;;;4.00;;
20036;SDS011;10179;42.640;23.312;2024-02-21T00:47:58;5.82;;;4.28;;
20036;SDS011;10179;42.640;23.312;2024-02-21T00:50:23;6.78;;;4.50;;
20036;SDS011;10179;42.640;23.312;2024-02-21T00:52:48;7.82;;;4.00;;
20036;SDS011;10179;42.640;23.312;2024-02-21T00:55:14;6.28;;;4.20;;
20036;SDS011;10179;42.640;23.312;2024-02-21T00:57:40;5.15;;;3.90;;
20036;SDS011;10179;42.640;23.312;2024-02-21T01:00:06;6.15;;;4.28;;
20036;SDS011;10179;42.640;23.312;2024-02-21T01:02:33;6.78;;;4.63;;
20036;SDS011;10179;42.640;23.312;2024-02-21T01:04:58;7.45;;;4.05;;
20036;SDS011;10179;42.640;23.312;2024-02-21T01:07:23;7.38;;;4.38;;
20036;SDS011;10179;42.640;23.312;2024-02-21T01:09:49;7.15;;;4.72;;
20036;SDS011;10179;42.640;23.312;2024-02-21T01:12:16;7.35;;;4.50;;
20036;SDS011;10179;42.640;23.312;2024-02-21T01:14:41;10.05;;;4.88;;
20036;SDS011;10179;42.640;23.312;2024-02-21T01:17:07;7.35;;;4.90;;
20036;SDS011;10179;42.640;23.312;2024-02-21T01:19:32;5.70;;;4.30;;
20036;SDS011;10179;42.640;23.312;2024-02-21T01:21:58;7.30;;;4.57;;
20036;SDS011;10179;42.640;23.312;2024-02-21T01:24:23;7.68;;;5.10;;
20036;SDS011;10179;42.640;23.312;2024-02-21T01:26:49;6.45;;;4.78;;
20036;SDS011;10179;42.640;23.312;2024-02-21T01:29:14;7.15;;;4.72;;
20036;SDS011;10179;42.640;23.312;2024-02-21T01:31:40;8.80;;;4.50;;
20036;SDS011;10179;42.640;23.312;2024-02-21T01:34:06;6.50;;;4.47;;
20036;SDS011;10179;42.640;23.312;2024-02-21T01:36:31;7.18;;;4.88;;
20036;SDS011;10179;42.640;23.312;2024-02-21T01:38:57;7.55;;;4.75;;
20036;SDS011;10179;42.640;23.312;2024-02-21T01:41:22;8.52;;;5.03;;
20036;SDS011;10179;42.640;23.312;2024-02-21T01:43:48;7.93;;;5.25;;
20036;SDS011;10179;42.640;23.312;2024-02-21T01:46:13;9.45;;;5.72;;
20036;SDS011;10179;42.640;23.312;2024-02-21T01:48:39;10.23;;;6.18;;
20036;SDS011;10179;42.640;23.312;2024-02-21T01:51:04;10.68;;;6.35;;
20036;SDS011;10179;42.640;23.312;2024-02-21T01:53:30;10.52;;;6.65;;
20036;SDS011;10179;42.640;23.312;2024-02-21T01:55:59;9.45;;;6.25;;
20036;SDS011;10179;42.640;23.312;2024-02-21T01:58:26;11.05;;;6.88;;
20036;SDS011;10179;42.640;23.312;2024-02-21T02:00:54;10.70;;;7.07;;
20036;SDS011;10179;42.640;23.312;2024-02-21T02:03:21;12.05;;;7.35;;
20036;SDS011;10179;42.640;23.312;2024-02-21T02:05:47;12.88;;;7.20;;
20036;SDS011;10179;42.640;23.312;2024-02-21T02:08:18;13.55;;;8.82;;
20036;SDS011;10179;42.640;23.312;2024-02-21T02:10:44;12.13;;;7.75;;
20036;SDS011;10179;42.640;23.312;2024-02-21T02:13:13;11.77;;;7.38;;
20036;SDS011;10179;42.640;23.312;2024-02-21T02:15:39;14.35;;;7.93;;
20036;SDS011;10179;42.640;23.312;2024-02-21T02:18:09;13.85;;;7.63;;
20036;SDS011;10179;42.640;23.312;2024-02-21T02:20:35;13.43;;;7.93;;
20036;SDS011;10179;42.640;23.312;2024-02-21T02:25:46;14.20;;;8.13;;
20036;SDS011;10179;42.640;23.312;2024-02-21T02:28:17;15.77;;;9.07;;
20036;SDS011;10179;42.640;23.312;2024-02-21T02:30:43;14.32;;;8.57;;
20036;SDS011;10179;42.640;23.312;2024-02-21T02:33:09;14.55;;;9.35;;
20036;SDS011;10179;42.640;23.312;2024-02-21T02:35:35;14.30;;;8.45;;
20036;SDS011;10179;42.640;23.312;2024-02-21T02:38:02;14.15;;;8.45;;
20036;SDS011;10179;42.640;23.312;2024-02-21T02:40:28;15.75;;;8.68;;
20036;SDS011;10179;42.640;23.312;2024-02-21T02:42:53;12.15;;;7.60;;
20036;SDS011;10179;42.640;23.312;2024-02-21T02:45:20;13.55;;;8.68;;
20036;SDS011;10179;42.640;23.312;2024-02-21T02:47:51;14.23;;;9.18;;
20036;SDS011;10179;42.640;23.312;2024-02-21T02:50:19;14.95;;;9.13;;
20036;SDS011;10179;42.640;23.312;2024-02-21T02:52:45;13.77;;;8.65;;
20036;SDS011;10179;42.640;23.312;2024-02-21T02:55:10;13.57;;;8.73;;
20036;SDS011;10179;42.640;23.312;2024-02-21T02:57:36;14.70;;;8.98;;
20036;SDS011;10179;42.640;23.312;2024-02-21T03:00:02;14.20;;;8.45;;
20036;SDS011;10179;42.640;23.312;2024-02-21T03:02:28;13.15;;;8.02;;
20036;SDS011;10179;42.640;23.312;2024-02-21T03:04:53;12.65;;;8.07;;
20036;SDS011;10179;42.640;23.312;2024-02-21T03:07:19;14.38;;;8.68;;
20036;SDS011;10179;42.640;23.312;2024-02-21T03:09:45;14.23;;;8.80;;
20036;SDS011;10179;42.640;23.312;2024-02-21T03:12:10;13.18;;;8.68;;
20036;SDS011;10179;42.640;23.312;2024-02-21T03:14:36;12.50;;;8.13;;
20036;SDS011;10179;42.640;23.312;2024-02-21T03:17:02;13.80;;;8.32;;
20036;SDS011;10179;42.640;23.312;2024-02-21T03:19:28;14.65;;;7.88;;
20036;SDS011;10179;42.640;23.312;2024-02-21T03:21:54;14.23;;;8.57;;
20036;SDS011;10179;42.640;23.312;2024-02-21T03:24:20;14.35;;;9.02;;
20036;SDS011;10179;42.640;23.312;2024-02-21T03:26:46;15.43;;;9.32;;
20036;SDS011;10179;42.640;23.312;2024-02-21T03:29:15;14.38;;;9.10;;
20036;SDS011;10179;42.640;23.312;2024-02-21T03:31:41;13.63;;;9.05;;
20036;SDS011;10179;42.640;23.312;2024-02-21T03:34:07;14.15;;;9.27;;
20036;SDS011;10179;42.640;23.312;2024-02-21T03:36:33;13.45;;;8.38;;
20036;SDS011;10179;42.640;23.312;2024-02-21T03:38:58;15.32;;;8.52;;
20036;SDS011;10179;42.640;23.312;2024-02-21T03:41:24;14.35;;;8.98;;
20036;SDS011;10179;42.640;23.312;2024-02-21T03:43:50;14.50;;;9.23;;
20036;SDS011;10179;42.640;23.312;2024-02-21T03:46:15;15.15;;;9.57;;
20036;SDS011;10179;42.640;23.312;2024-02-21T03:48:41;14.88;;;8.98;;
20036;SDS011;10179;42.640;23.312;2024-02-21T03:51:06;15.25;;;8.85;;
20036;SDS011;10179;42.640;23.312;2024-02-21T03:53:32;14.85;;;8.98;;
20036;SDS011;10179;42.640;23.312;2024-02-21T03:56:01;17.42;;;9.95;;
20036;SDS011;10179;42.640;23.312;2024-02-21T03:58:28;16.60;;;9.73;;
20036;SDS011;10179;42.640;23.312;2024-02-21T04:00:54;17.38;;;9.95;;
20036;SDS011;10179;42.640;23.312;2024-02-21T04:03:19;15.93;;;10.05;;
20036;SDS011;10179;42.640;23.312;2024-02-21T04:05:45;19.13;;;10.35;;
20036;SDS011;10179;42.640;23.312;2024-02-21T04:08:11;16.83;;;9.50;;
20036;SDS011;10179;42.640;23.312;2024-02-21T04:10:36;17.25;;;9.93;;
20036;SDS011;10179;42.640;23.312;2024-02-21T04:13:02;17.65;;;10.52;;
20036;SDS011;10179;42.640;23.312;2024-02-21T04:15:28;19.10;;;10.70;;
20036;SDS011;10179;42.640;23.312;2024-02-21T04:17:53;15.27;;;9.02;;
20036;SDS011;10179;42.640;23.312;2024-02-21T04:20:18;14.23;;;8.38;;
20036;SDS011;10179;42.640;23.312;2024-02-21T04:22:44;17.48;;;10.10;;
20036;SDS011;10179;42.640;23.312;2024-02-21T04:25:12;16.55;;;10.23;;
20036;SDS011;10179;42.640;23.312;2024-02-21T04:27:38;18.17;;;10.65;;
20036;SDS011;10179;42.640;23.312;2024-02-21T04:30:04;17.92;;;9.30;;
20036;SDS011;10179;42.640;23.312;2024-02-21T04:32:30;18.23;;;9.68;;
20036;SDS011;10179;42.640;23.312;2024-02-21T04:34:55;17.63;;;10.23;;
20036;SDS011;10179;42.640;23.312;2024-02-21T04:37:21;19.98;;;10.00;;
20036;SDS011;10179;42.640;23.312;2024-02-21T04:39:46;18.08;;;11.15;;
20036;SDS011;10179;42.640;23.312;2024-02-21T04:42:13;21.38;;;10.80;;
20036;SDS011;10179;42.640;23.312;2024-02-21T04:44:39;18.25;;;10.57;;
20036;SDS011;10179;42.640;23.312;2024-02-21T04:47:04;19.92;;;11.50;;
20036;SDS011;10179;42.640;23.312;2024-02-21T04:49:30;16.00;;;9.60;;
20036;SDS011;10179;42.640;23.312;2024-02-21T04:51:55;21.83;;;11.07;;
20036;SDS011;10179;42.640;23.312;2024-02-21T04:54:21;18.20;;;10.85;;
20036;SDS011;10179;42.640;23.312;2024-02-21T04:56:46;18.52;;;11.88;;
20036;SDS011;10179;42.640;23.312;2024-02-21T04:59:12;20.40;;;11.73;;
20036;SDS011;10179;42.640;23.312;2024-02-21T05:01:37;19.27;;;11.45;;
20036;SDS011;10179;42.640;23.312;2024-02-21T05:04:03;18.13;;;11.05;;
20036;SDS011;10179;42.640;23.312;2024-02-21T05:06:29;20.20;;;11.20;;
20036;SDS011;10179;42.640;23.312;2024-02-21T05:08:54;23.55;;;12.52;;
20036;SDS011;10179;42.640;23.312;2024-02-21T05:11:20;20.15;;;11.40;;
20036;SDS011;10179;42.640;23.312;2024-02-21T05:13:46;23.45;;;13.00;;
20036;SDS011;10179;42.640;23.312;2024-02-21T05:16:12;21.13;;;11.73;;
20036;SDS011;10179;42.640;23.312;2024-02-21T05:18:38;20.35;;;11.68;;
20036;SDS011;10179;42.640;23.312;2024-02-21T05:21:03;18.50;;;11.38;;
20036;SDS011;10179;42.640;23.312;2024-02-21T05:23:29;18.95;;;11.25;;
20036;SDS011;10179;42.640;23.312;2024-02-21T05:25:55;19.17;;;11.23;;
20036;SDS011;10179;42.640;23.312;2024-02-21T05:28:20;16.17;;;9.70;;
20036;SDS011;10179;42.640;23.312;2024-02-21T05:30:45;17.75;;;10.32;;
20036;SDS011;10179;42.640;23.312;2024-02-21T05:33:11;17.73;;;9.82;;
20036;SDS011;10179;42.640;23.312;2024-02-21T05:35:37;19.02;;;9.65;;
20036;SDS011;10179;42.640;23.312;2024-02-21T05:38:03;17.23;;;10.40;;
20036;SDS011;10179;42.640;23.312;2024-02-21T05:40:36;16.42;;;9.48;;
20036;SDS011;10179;42.640;23.312;2024-02-21T05:43:01;16.15;;;10.35;;
20036;SDS011;10179;42.640;23.312;2024-02-21T05:45:27;16.92;;;9.70;;
20036;SDS011;10179;42.640;23.312;2024-02-21T05:47:52;18.55;;;10.35;;
20036;SDS011;10179;42.640;23.312;2024-02-21T05:50:18;17.23;;;10.38;;
20036;SDS011;10179;42.640;23.312;2024-02-21T05:52:44;17.45;;;10.05;;
20036;SDS011;10179;42.640;23.312;2024-02-21T05:55:10;16.85;;;9.18;;
20036;SDS011;10179;42.640;23.312;2024-02-21T05:57:35;16.83;;;10.32;;
20036;SDS011;10179;42.640;23.312;2024-02-21T06:00:03;18.80;;;9.98;;
20036;SDS011;10179;42.640;23.312;2024-02-21T06:02:30;15.90;;;9.10;;
20036;SDS011;10179;42.640;23.312;2024-02-21T06:04:55;17.30;;;8.70;;
20036;SDS011;10179;42.640;23.312;2024-02-21T06:07:21;16.08;;;9.35;;
20036;SDS011;10179;42.640;23.312;2024-02-21T06:09:46;18.70;;;9.50;;
20036;SDS011;10179;42.640;23.312;2024-02-21T06:12:12;16.50;;;9.75;;
20036;SDS011;10179;42.640;23.312;2024-02-21T06:14:37;16.52;;;9.43;;
20036;SDS011;10179;42.640;23.312;2024-02-21T06:17:03;20.15;;;9.65;;
20036;SDS011;10179;42.640;23.312;2024-02-21T06:19:28;16.08;;;10.00;;
20036;SDS011;10179;42.640;23.312;2024-02-21T06:21:54;15.63;;;9.93;;
20036;SDS011;10179;42.640;23.312;2024-02-21T06:24:19;19.50;;;10.80;;
20036;SDS011;10179;42.640;23.312;2024-02-21T06:26:45;17.67;;;10.45;;
20036;SDS011;10179;42.640;23.312;2024-02-21T06:29:11;17.33;;;10.52;;
20036;SDS011;10179;42.640;23.312;2024-02-21T06:31:38;17.02;;;10.18;;
20036;SDS011;10179;42.640;23.312;2024-02-21T06:34:04;18.92;;;11.75;;
20036;SDS011;10179;42.640;23.312;2024-02-21T06:36:29;23.98;;;11.15;;
20036;SDS011;10179;42.640;23.312;2024-02-21T06:38:54;17.77;;;11.07;;
20036;SDS011;10179;42.640;23.312;2024-02-21T06:41:20;23.75;;;12.50;;
20036;SDS011;10179;42.640;23.312;2024-02-21T06:43:46;19.85;;;10.65;;
20036;SDS011;10179;42.640;23.312;2024-02-21T06:46:22;15.30;;;9.75;;
20036;SDS011;10179;42.640;23.312;2024-02-21T06:48:48;21.02;;;11.23;;
20036;SDS011;10179;42.640;23.312;2024-02-21T06:51:14;18.15;;;11.30;;
20036;SDS011;10179;42.640;23.312;2024-02-21T06:53:39;21.38;;;12.25;;
20036;SDS011;10179;42.640;23.312;2024-02-21T06:56:05;24.05;;;12.02;;
20036;SDS011;10179;42.640;23.312;2024-02-21T06:58:31;16.45;;;9.48;;
20036;SDS011;10179;42.640;23.312;2024-02-21T07:00:56;19.85;;;12.05;;
20036;SDS011;10179;42.640;23.312;2024-02-21T07:03:21;18.52;;;10.82;;
20036;SDS011;10179;42.640;23.312;2024-02-21T07:05:49;18.55;;;10.63;;
20036;SDS011;10179;42.640;23.312;2024-02-21T07:08:14;21.98;;;12.52;;
20036;SDS011;10179;42.640;23.312;2024-02-21T07:10:40;20.35;;;11.77;;
20036;SDS011;10179;42.640;23.312;2024-02-21T07:13:05;15.95;;;10.30;;
20036;SDS011;10179;42.640;23.312;2024-02-21T07:15:31;17.92;;;11.25;;
20036;SDS011;10179;42.640;23.312;2024-02-21T07:17:57;26.55;;;13.25;;
20036;SDS011;10179;42.640;23.312;2024-02-21T07:20:22;22.00;;;11.80;;
20036;SDS011;10179;42.640;23.312;2024-02-21T07:22:47;24.90;;;12.88;;
20036;SDS011;10179;42.640;23.312;2024-02-21T07:25:13;24.13;;;12.50;;
20036;SDS011;10179;42.640;23.312;2024-02-21T07:27:38;27.30;;;12.93;;
20036;SDS011;10179;42.640;23.312;2024-02-21T07:30:05;21.27;;;10.65;;
20036;SDS011;10179;42.640;23.312;2024-02-21T07:32:31;29.60;;;13.18;;
20036;SDS011;10179;42.640;23.312;2024-02-21T07:34:56;23.92;;;13.07;;
20036;SDS011;10179;42.640;23.312;2024-02-21T07:37:21;19.90;;;11.85;;
20036;SDS011;10179;42.640;23.312;2024-02-21T07:39:47;18.13;;;11.05;;
20036;SDS011;10179;42.640;23.312;2024-02-21T07:42:12;22.25;;;12.15;;
20036;SDS011;10179;42.640;23.312;2024-02-21T07:44:37;21.55;;;11.82;;
20036;SDS011;10179;42.640;23.312;2024-02-21T07:47:03;17.67;;;9.70;;
20036;SDS011;10179;42.640;23.312;2024-02-21T07:49:28;23.40;;;10.77;;
20036;SDS011;10179;42.640;23.312;2024-02-21T07:51:54;20.45;;;11.73;;
20036;SDS011;10179;42.640;23.312;2024-02-21T07:54:19;21.77;;;11.93;;
20036;SDS011;10179;42.640;23.312;2024-02-21T07:56:45;24.85;;;13.40;;
20036;SDS011;10179;42.640;23.312;2024-02-21T07:59:10;34.22;;;15.50;;
20036;SDS011;10179;42.640;23.312;2024-02-21T08:01:35;31.83;;;13.60;;
20036;SDS011;10179;42.640;23.312;2024-02-21T08:04:01;30.00;;;15.25;;
20036;SDS011;10179;42.640;23.312;2024-02-21T08:06:27;24.35;;;12.90;;
20036;SDS011;10179;42.640;23.312;2024-02-21T08:08:53;20.00;;;11.90;;
20036;SDS011;10179;42.640;23.312;2024-02-21T08:11:18;19.60;;;10.52;;
20036;SDS011;10179;42.640;23.312;2024-02-21T08:13:44;30.50;;;15.77;;
20036;SDS011;10179;42.640;23.312;2024-02-21T08:16:09;41.75;;;23.48;;
20036;SDS011;10179;42.640;23.312;2024-02-21T08:18:34;22.02;;;12.75;;
20036;SDS011;10179;42.640;23.312;2024-02-21T08:21:03;21.25;;;11.50;;
20036;SDS011;10179;42.640;23.312;2024-02-21T08:23:28;23.00;;;13.15;;
20036;SDS011;10179;42.640;23.312;2024-02-21T08:25:54;18.67;;;11.38;;
20036;SDS011;10179;42.640;23.312;2024-02-21T08:28:21;22.38;;;13.07;;
20036;SDS011;10179;42.640;23.312;2024-02-21T08:30:46;19.90;;;11.27;;
20036;SDS011;10179;42.640;23.312;2024-02-21T08:33:15;25.17;;;14.38;;
20036;SDS011;10179;42.640;23.312;2024-02-21T08:35:41;23.08;;;11.50;;
20036;SDS011;10179;42.640;23.312;2024-02-21T08:38:07;19.50;;;10.60;;
20036;SDS011;10179;42.640;23.312;2024-02-21T08:40:32;16.85;;;9.68;;
20036;SDS011;10179;42.640;23.312;2024-02-21T08:43:00;16.98;;;8.80;;
20036;SDS011;10179;42.640;23.312;2024-02-21T08:45:26;13.38;;;7.97;;
20036;SDS011;10179;42.640;23.312;2024-02-21T08:47:51;10.88;;;7.75;;
20036;SDS011;10179;42.640;23.312;2024-02-21T08:50:16;12.68;;;8.02;;
20036;SDS011;10179;42.640;23.312;2024-02-21T08:52:42;10.88;;;6.28;;
20036;SDS011;10179;42.640;23.312;2024-02-21T08:55:07;13.82;;;8.52;;
20036;SDS011;10179;42.640;23.312;2024-02-21T08:57:33;13.07;;;8.23;;
20036;SDS011;10179;42.640;23.312;2024-02-21T09:00:03;11.20;;;7.78;;
20036;SDS011;10179;42.640;23.312;2024-02-21T09:02:34;14.27;;;8.20;;
20036;SDS011;10179;42.640;23.312;2024-02-21T09:05:05;8.57;;;5.53;;
20036;SDS011;10179;42.640;23.312;2024-02-21T09:07:30;14.20;;;8.75;;
20036;SDS011;10179;42.640;23.312;2024-02-21T09:09:56;16.10;;;9.35;;
20036;SDS011;10179;42.640;23.312;2024-02-21T09:12:21;18.70;;;9.18;;
20036;SDS011;10179;42.640;23.312;2024-02-21T09:14:47;24.63;;;10.38;;
20036;SDS011;10179;42.640;23.312;2024-02-21T09:17:15;19.02;;;10.48;;
20036;SDS011;10179;42.640;23.312;2024-02-21T09:19:42;13.55;;;8.57;;
20036;SDS011;10179;42.640;23.312;2024-02-21T09:22:07;16.48;;;9.70;;
20036;SDS011;10179;42.640;23.312;2024-02-21T09:24:33;17.17;;;7.85;;
20036;SDS011;10179;42.640;23.312;2024-02-21T09:26:58;9.75;;;5.72;;
20036;SDS011;10179;42.640;23.312;2024-02-21T09:29:25;13.70;;;6.97;;
20036;SDS011;10179;42.640;23.312;2024-02-21T09:31:50;9.50;;;5.80;;
20036;SDS011;10179;42.640;23.312;2024-02-21T09:34:16;11.57;;;6.60;;
20036;SDS011;10179;42.640;23.312;2024-02-21T09:36:41;14.95;;;8.77;;
20036;SDS011;10179;42.640;23.312;2024-02-21T09:39:07;14.63;;;9.30;;
20036;SDS011;10179;42.640;23.312;2024-02-21T09:41:32;14.70;;;8.13;;
20036;SDS011;10179;42.640;23.312;2024-02-21T09:44:04;11.48;;;5.40;;
20036;SDS011;10179;42.640;23.312;2024-02-21T09:46:40;21.92;;;10.65;;
20036;SDS011;10179;42.640;23.312;2024-02-21T09:52:00;16.90;;;7.88;;
20036;SDS011;10179;42.640;23.312;2024-02-21T09:54:30;15.93;;;8.85;;
20036;SDS011;10179;42.640;23.312;2024-02-21T09:57:02;12.50;;;8.23;;
20036;SDS011;10179;42.640;23.312;2024-02-21T09:59:28;28.00;;;8.32;;
20036;SDS011;10179;42.640;23.312;2024-02-21T10:01:56;16.38;;;7.78;;
20036;SDS011;10179;42.640;23.312;2024-02-21T10:04:22;19.30;;;9.68;;
20036;SDS011;10179;42.640;23.312;2024-02-21T10:06:47;19.52;;;10.38;;
20036;SDS011;10179;42.640;23.312;2024-02-21T10:09:23;13.20;;;8.60;;
20036;SDS011;10179;42.640;23.312;2024-02-21T10:11:49;16.25;;;9.32;;
20036;SDS011;10179;42.640;23.312;2024-02-21T10:14:16;20.98;;;9.63;;
20036;SDS011;10179;42.640;23.312;2024-02-21T10:16:42;15.10;;;7.63;;
20036;SDS011;10179;42.640;23.312;2024-02-21T10:19:16;13.40;;;7.75;;
20036;SDS011;10179;42.640;23.312;2024-02-21T10:21:42;12.68;;;7.70;;
20036;SDS011;10179;42.640;23.312;2024-02-21T10:24:07;10.75;;;7.13;;
20036;SDS011;10179;42.640;23.312;2024-02-21T10:26:33;11.40;;;7.13;;
20036;SDS011;10179;42.640;23.312;2024-02-21T10:28:58;9.15;;;6.30;;
20036;SDS011;10179;42.640;23.312;2024-02-21T10:31:27;11.70;;;6.97;;
20036;SDS011;10179;42.640;23.312;2024-02-21T10:33:53;9.15;;;5.53;;
20036;SDS011;10179;42.640;23.312;2024-02-21T10:36:20;8.68;;;5.78;;
20036;SDS011;10179;42.640;23.312;2024-02-21T10:38:45;8.77;;;6.38;;
20036;SDS011;10179;42.640;23.312;2024-02-21T10:41:11;8.98;;;5.70;;
20036;SDS011;10179;42.640;23.312;2024-02-21T10:43:39;8.90;;;6.30;;
20036;SDS011;10179;42.640;23.312;2024-02-21T10:46:08;11.02;;;7.20;;
20036;SDS011;10179;42.640;23.312;2024-02-21T10:48:41;9.30;;;5.75;;
20036;SDS011;10179;42.640;23.312;2024-02-21T10:53:41;9.10;;;5.25;;
20036;SDS011;10179;42.640;23.312;2024-02-21T10:58:55;12.88;;;7.25;;
20036;SDS011;10179;42.640;23.312;2024-02-21T11:01:23;10.23;;;6.30;;
20036;SDS011;10179;42.640;23.312;2024-02-21T11:03:49;11.88;;;6.82;;
20036;SDS011;10179;42.640;23.312;2024-02-21T11:06:18;10.38;;;6.07;;
20036;SDS011;10179;42.640;23.312;2024-02-21T11:08:46;10.10;;;5.28;;
20036;SDS011;10179;42.640;23.312;2024-02-21T11:11:13;11.35;;;5.78;;
20036;SDS011;10179;42.640;23.312;2024-02-21T11:13:43;9.68;;;4.85;;
20036;SDS011;10179;42.640;23.312;2024-02-21T11:16:09;16.58;;;4.85;;
20036;SDS011;10179;42.640;23.312;2024-02-21T11:18:39;8.23;;;4.85;;
20036;SDS011;10179;42.640;23.312;2024-02-21T11:21:05;9.13;;;5.25;;
20036;SDS011;10179;42.640;23.312;2024-02-21T11:23:31;9.05;;;5.03;;
20036;SDS011;10179;42.640;23.312;2024-02-21T11:26:09;7.53;;;4.85;;
20036;SDS011;10179;42.640;23.312;2024-02-21T11:28:36;7.68;;;4.78;;
20036;SDS011;10179;42.640;23.312;2024-02-21T11:31:09;7.40;;;4.15;;
20036;SDS011;10179;42.640;23.312;2024-02-21T11:33:42;10.13;;;5.68;;
20036;SDS011;10179;42.640;23.312;2024-02-21T11:36:08;10.25;;;5.72;;
20036;SDS011;10179;42.640;23.312;2024-02-21T11:38:34;6.15;;;4.43;;
20036;SDS011;10179;42.640;23.312;2024-02-21T11:41:00;6.65;;;4.88;;
20036;SDS011;10179;42.640;23.312;2024-02-21T11:43:25;8.80;;;4.53;;
20036;SDS011;10179;42.640;23.312;2024-02-21T11:45:58;5.25;;;3.70;;
20036;SDS011;10179;42.640;23.312;2024-02-21T11:48:25;7.80;;;4.40;;
20036;SDS011;10179;42.640;23.312;2024-02-21T11:50:54;6.47;;;4.00;;
20036;SDS011;10179;42.640;23.312;2024-02-21T11:53:20;13.30;;;5.30;;
20036;SDS011;10179;42.640;23.312;2024-02-21T11:55:46;5.22;;;4.00;;
20036;SDS011;10179;42.640;23.312;2024-02-21T11:58:12;8.50;;;4.60;;
20036;SDS011;10179;42.640;23.312;2024-02-21T12:00:37;6.32;;;4.15;;
20036;SDS011;10179;42.640;23.312;2024-02-21T12:03:04;9.75;;;4.70;;
20036;SDS011;10179;42.640;23.312;2024-02-21T12:05:29;6.40;;;4.55;;
20036;SDS011;10179;42.640;23.312;2024-02-21T12:07:56;6.05;;;4.03;;
20036;SDS011;10179;42.640;23.312;2024-02-21T12:10:23;11.18;;;5.25;;
20036;SDS011;10179;42.640;23.312;2024-02-21T12:12:51;9.50;;;5.55;;
20036;SDS011;10179;42.640;23.312;2024-02-21T12:15:17;7.75;;;4.78;;
20036;SDS011;10179;42.640;23.312;2024-02-21T12:17:43;5.53;;;4.15;;
20036;SDS011;10179;42.640;23.312;2024-02-21T12:20:10;8.73;;;5.05;;
20036;SDS011;10179;42.640;23.312;2024-02-21T12:22:37;14.55;;;5.65;;
20036;SDS011;10179;42.640;23.312;2024-02-21T12:25:03;5.88;;;4.13;;
20036;SDS011;10179;42.640;23.312;2024-02-21T12:27:32;7.80;;;5.00;;
20036;SDS011;10179;42.640;23.312;2024-02-21T12:29:58;6.80;;;4.97;;
20036;SDS011;10179;42.640;23.312;2024-02-21T12:32:24;7.63;;;4.97;;
20036;SDS011;10179;42.640;23.312;2024-02-21T12:34:49;6.97;;;4.57;;
20036;SDS011;10179;42.640;23.312;2024-02-21T12:37:15;12.35;;;5.72;;
20036;SDS011;10179;42.640;23.312;2024-02-21T12:39:41;9.52;;;4.45;;
20036;SDS011;10179;42.640;23.312;2024-02-21T12:42:07;16.02;;;9.48;;
20036;SDS011;10179;42.640;23.312;2024-02-21T12:44:33;6.65;;;4.63;;
20036;SDS011;10179;42.640;23.312;2024-02-21T12:46:59;10.35;;;5.45;;
20036;SDS011;10179;42.640;23.312;2024-02-21T12:49:25;13.23;;;5.50;;
20036;SDS011;10179;42.640;23.312;2024-02-21T12:51:52;11.38;;;5.13;;
20036;SDS011;10179;42.640;23.312;2024-02-21T12:54:18;8.90;;;5.40;;
20036;SDS011;10179;42.640;23.312;2024-02-21T12:56:43;9.43;;;5.10;;
20036;SDS011;10179;42.640;23.312;2024-02-21T12:59:09;7.88;;;5.05;;
20036;SDS011;10179;42.640;23.312;2024-02-21T13:01:35;7.97;;;5.22;;
20036;SDS011;10179;42.640;23.312;2024-02-21T13:04:01;7.43;;;4.57;;
20036;SDS011;10179;42.640;23.312;2024-02-21T13:06:26;7.90;;;4.78;;
20036;SDS011;10179;42.640;23.312;2024-02-21T13:08:53;7.25;;;5.28;;
20036;SDS011;10179;42.640;23.312;2024-02-21T13:11:18;5.55;;;3.88;;
20036;SDS011;10179;42.640;23.312;2024-02-21T13:13:44;5.25;;;3.58;;
20036;SDS011;10179;42.640;23.312;2024-02-21T13:16:09;10.00;;;4.18;;
20036;SDS011;10179;42.640;23.312;2024-02-21T13:18:35;11.43;;;7.00;;
20036;SDS011;10179;42.640;23.312;2024-02-21T13:21:03;8.32;;;5.28;;
20036;SDS011;10179;42.640;23.312;2024-02-21T13:23:29;5.60;;;4.15;;
20036;SDS011;10179;42.640;23.312;2024-02-21T13:25:54;13.85;;;5.32;;
20036;SDS011;10179;42.640;23.312;2024-02-21T13:28:20;9.02;;;6.15;;
20036;SDS011;10179;42.640;23.312;2024-02-21T13:30:45;11.30;;;4.03;;
20036;SDS011;10179;42.640;23.312;2024-02-21T13:33:11;12.77;;;6.68;;
20036;SDS011;10179;42.640;23.312;2024-02-21T13:35:37;9.35;;;5.13;;
20036;SDS011;10179;42.640;23.312;2024-02-21T13:38:03;9.38;;;5.57;;
20036;SDS011;10179;42.640;23.312;2024-02-21T13:40:28;8.65;;;5.22;;
20036;SDS011;10179;42.640;23.312;2024-02-21T13:42:54;9.25;;;5.45;;
20036;SDS011;10179;42.640;23.312;2024-02-21T13:45:19;10.52;;;5.72;;
20036;SDS011;10179;42.640;23.312;2024-02-21T13:47:45;7.60;;;4.65;;
20036;SDS011;10179;42.640;23.312;2024-02-21T13:50:11;8.63;;;6.07;;
20036;SDS011;10179;42.640;23.312;2024-02-21T13:52:42;10.70;;;4.68;;
20036;SDS011;10179;42.640;23.312;2024-02-21T13:55:08;7.73;;;5.00;;
20036;SDS011;10179;42.640;23.312;2024-02-21T13:57:37;10.07;;;5.38;;
20036;SDS011;10179;42.640;23.312;2024-02-21T14:00:05;10.45;;;5.30;;
20036;SDS011;10179;42.640;23.312;2024-02-21T14:02:31;9.57;;;5.78;;
20036;SDS011;10179;42.640;23.312;2024-02-21T14:04:56;7.40;;;4.95;;
20036;SDS011;10179;42.640;23.312;2024-02-21T14:07:22;7.07;;;5.47;;
20036;SDS011;10179;42.640;23.312;2024-02-21T14:09:47;9.45;;;5.78;;
20036;SDS011;10179;42.640;23.312;2024-02-21T14:12:13;10.70;;;5.97;;
20036;SDS011;10179;42.640;23.312;2024-02-21T14:14:42;9.57;;;6.50;;
20036;SDS011;10179;42.640;23.312;2024-02-21T14:17:08;10.32;;;6.60;;
20036;SDS011;10179;42.640;23.312;2024-02-21T14:19:34;11.13;;;6.55;;
20036;SDS011;10179;42.640;23.312;2024-02-21T14:21:59;9.90;;;6.63;;
20036;SDS011;10179;42.640;23.312;2024-02-21T14:24:25;9.40;;;5.93;;
20036;SDS011;10179;42.640;23.312;2024-02-21T14:26:50;12.13;;;7.35;;
20036;SDS011;10179;42.640;23.312;2024-02-21T14:29:15;9.70;;;5.65;;